createdAt,value
2019-01-30T00:00:49.403Z,94571.00
2019-01-30T00:05:51.991Z,94559.00
2019-01-30T00:10:54.745Z,94542.00
2019-01-30T00:15:58.053Z,94536.00
2019-01-30T00:21:00.619Z,94523.00
2019-01-30T00:26:03.457Z,94519.00
2019-01-30T00:31:06.366Z,94515.00
2019-01-30T00:36:08.886Z,94495.00
2019-01-30T00:41:11.543Z,94497.00
2019-01-30T00:46:14.159Z,94495.00
2019-01-30T00:51:16.985Z,94480.00
2019-01-30T00:56:19.531Z,94478.00
2019-01-30T01:01:22.214Z,94467.00
2019-01-30T01:06:24.816Z,94456.00
2019-01-30T01:11:28.114Z,94461.00
2019-01-30T01:16:30.668Z,94445.00
2019-01-30T01:21:33.201Z,94440.00
2019-01-30T01:26:35.785Z,94444.00
2019-01-30T01:31:38.444Z,94437.00
2019-01-30T01:36:41.063Z,94421.00
2019-01-30T01:41:43.652Z,94420.00
2019-01-30T01:46:46.287Z,94402.00
2019-01-30T01:51:48.820Z,94401.00
2019-01-30T01:56:51.551Z,94384.00
2019-01-30T02:01:54.302Z,94368.00
2019-01-30T02:06:56.827Z,94378.00
2019-01-30T02:11:59.523Z,94371.00
2019-01-30T02:17:02.099Z,94355.00
2019-01-30T02:22:04.772Z,94348.00
2019-01-30T02:27:07.432Z,94347.00
2019-01-30T02:32:10.463Z,94339.00
2019-01-30T02:37:13.233Z,94333.00
2019-01-30T02:42:15.891Z,94321.00
2019-01-30T02:47:18.637Z,94323.00
2019-01-30T02:52:21.345Z,94319.00
2019-01-30T02:57:23.881Z,94310.00
2019-01-30T03:02:26.502Z,94311.00
2019-01-30T03:07:29.122Z,94303.00
2019-01-30T03:12:31.685Z,94306.00
2019-01-30T03:17:34.299Z,94312.00
2019-01-30T03:22:37.584Z,94300.00
2019-01-30T03:27:40.052Z,94294.00
2019-01-30T03:32:42.571Z,94284.00
2019-01-30T03:37:45.215Z,94286.00
2019-01-30T03:42:48.940Z,94281.00
2019-01-30T03:47:52.031Z,94276.00
2019-01-30T03:52:54.745Z,94280.00
2019-01-30T03:57:57.561Z,94276.00
2019-01-30T04:03:00.292Z,94259.00
2019-01-30T04:08:03.120Z,94266.00
2019-01-30T04:13:05.871Z,94263.00
2019-01-30T04:18:08.323Z,94263.00
2019-01-30T04:23:10.946Z,94248.00
2019-01-30T04:28:13.618Z,94250.00
2019-01-30T04:33:16.302Z,94245.00
2019-01-30T04:38:19.801Z,94242.00
2019-01-30T04:43:22.676Z,94235.00
2019-01-30T04:48:25.581Z,94232.00
2019-01-30T04:53:28.151Z,94239.00
2019-01-30T04:58:31.130Z,94231.00
2019-01-30T05:03:33.931Z,94232.00
2019-01-30T05:08:36.810Z,94272.00
2019-01-30T05:13:40.407Z,94222.00
2019-01-30T05:18:42.961Z,94212.00
2019-01-30T05:23:45.480Z,94202.00
2019-01-30T05:28:48.022Z,94203.00
2019-01-30T05:33:50.739Z,94196.00
2019-01-30T05:38:53.431Z,94196.00
2019-01-30T05:43:56.204Z,94203.00
2019-01-30T05:48:58.818Z,94210.00
2019-01-30T05:54:01.552Z,94217.00
2019-01-30T05:59:04.376Z,94210.00
2019-01-30T06:04:07.704Z,94210.00
2019-01-30T06:09:10.449Z,94214.00
2019-01-30T06:14:13.260Z,94214.00
2019-01-30T06:19:15.764Z,94219.00
2019-01-30T06:24:18.363Z,94213.00
2019-01-30T06:29:20.938Z,94208.00
2019-01-30T06:34:23.563Z,94211.00
2019-01-30T06:39:26.455Z,94214.00
2019-01-30T06:44:29.366Z,94211.00
2019-01-30T06:49:31.944Z,94206.00
2019-01-30T06:54:34.706Z,94205.00
2019-01-30T06:59:37.699Z,94210.00
2019-01-30T07:04:40.116Z,94215.00
2019-01-30T07:09:42.938Z,94216.00
2019-01-30T07:14:45.552Z,94210.00
2019-01-30T07:19:47.960Z,94213.00
2019-01-30T07:24:50.463Z,94214.00
2019-01-30T07:29:52.988Z,94218.00
2019-01-30T07:34:55.583Z,94222.00
2019-01-30T07:39:58.303Z,94227.00
2019-01-30T07:45:00.853Z,94234.00
2019-01-30T07:50:04.998Z,94236.00
2019-01-30T07:55:10.726Z,94245.00
2019-01-30T08:00:19.371Z,94255.00
2019-01-30T08:05:22.781Z,94273.00
2019-01-30T08:10:25.559Z,94280.00
2019-01-30T08:15:28.232Z,94287.00
2019-01-30T08:20:30.701Z,94282.00
2019-01-30T08:25:33.499Z,94283.00
2019-01-30T08:30:36.432Z,94286.00
2019-01-30T08:35:39.211Z,94306.00
2019-01-30T08:40:41.657Z,94313.00
2019-01-30T08:45:44.260Z,94305.00
2019-01-30T08:50:47.731Z,94308.00
2019-01-30T08:55:50.331Z,94296.00
2019-01-30T09:00:52.963Z,94304.00
2019-01-30T09:05:55.679Z,94309.00
2019-01-30T09:10:58.171Z,94300.00
2019-01-30T09:16:00.724Z,94302.00
2019-01-30T09:21:03.369Z,94300.00
2019-01-30T09:26:05.931Z,94305.00
2019-01-30T09:31:08.515Z,94316.00
2019-01-30T09:36:11.115Z,94342.00
2019-01-30T09:41:13.507Z,94352.00
2019-01-30T09:46:15.935Z,94366.00
2019-01-30T09:51:19.472Z,94382.00
2019-01-30T09:56:22.225Z,94390.00
2019-01-30T10:01:24.731Z,94402.00
2019-01-30T10:06:27.400Z,94403.00
2019-01-30T10:11:30.187Z,94403.00
2019-01-30T10:16:32.839Z,94403.00
2019-01-30T10:21:35.239Z,94410.00
2019-01-30T10:26:37.653Z,94414.00
2019-01-30T10:31:40.224Z,94409.00
2019-01-30T10:36:42.896Z,94404.00
2019-01-30T10:41:45.451Z,94391.00
2019-01-30T10:46:48.034Z,94402.00
2019-01-30T10:51:50.503Z,94399.00
2019-01-30T10:56:52.959Z,94387.00
2019-01-30T11:01:55.335Z,94391.00
2019-01-30T11:06:57.903Z,94393.00
2019-01-30T11:12:00.501Z,94401.00
2019-01-30T11:17:03.379Z,94403.00
2019-01-30T11:22:05.863Z,94410.00
2019-01-30T11:27:08.383Z,94397.00
2019-01-30T11:32:10.907Z,94379.00
2019-01-30T11:37:13.543Z,94391.00
2019-01-30T11:42:15.915Z,94395.00
2019-01-30T11:47:18.490Z,94385.00
2019-01-30T11:52:21.075Z,94382.00
2019-01-30T11:57:23.732Z,94397.00
2019-01-30T12:02:26.291Z,94396.00
2019-01-30T12:07:28.924Z,94397.00
2019-01-30T12:12:31.701Z,94400.00
2019-01-30T12:17:34.254Z,94397.00
2019-01-30T12:22:37.334Z,94390.00
2019-01-30T12:27:39.912Z,94385.00
2019-01-30T12:32:42.500Z,94383.00
2019-01-30T12:37:45.174Z,94386.00
2019-01-30T12:42:47.824Z,94378.00
2019-01-30T12:47:50.310Z,94368.00
2019-01-30T12:52:53.035Z,94357.00
2019-01-30T12:57:55.629Z,94358.00
2019-01-30T13:02:58.253Z,94360.00
2019-01-30T13:08:01.033Z,94362.00
2019-01-30T13:13:04.372Z,94360.00
2019-01-30T13:18:17.474Z,94355.00
2019-01-30T13:23:11.506Z,94358.00
2019-01-30T13:28:14.063Z,94355.00
2019-01-30T13:33:16.741Z,94356.00
2019-01-30T13:38:19.251Z,94371.00
2019-01-30T13:43:22.051Z,94370.00
2019-01-30T13:48:24.664Z,94356.00
2019-01-30T13:53:27.311Z,94361.00
2019-01-30T13:58:42.972Z,94371.00
2019-01-30T14:03:50.359Z,94367.00
2019-01-30T14:08:52.971Z,94371.00
2019-01-30T14:13:56.283Z,94383.00
2019-01-30T14:18:58.982Z,94392.00
2019-01-30T14:24:01.578Z,94405.00
2019-01-30T14:29:04.144Z,94399.00
2019-01-30T14:34:06.798Z,94402.00
2019-01-30T14:39:09.483Z,94401.00
2019-01-30T14:44:12.215Z,94411.00
2019-01-30T14:49:21.092Z,94408.00
2019-01-30T14:54:23.669Z,94393.00
2019-01-30T14:59:26.484Z,94414.00
2019-01-30T15:04:35.973Z,94402.00
2019-01-30T15:09:38.795Z,94405.00
2019-01-30T15:14:42.569Z,94407.00
2019-01-30T15:19:45.116Z,94411.00
2019-01-30T15:24:47.673Z,94413.00
2019-01-30T15:29:51.390Z,94416.00
2019-01-30T15:34:54.283Z,94426.00
2019-01-30T15:39:57.172Z,94420.00
2019-01-30T15:45:00.185Z,94442.00
2019-01-30T15:50:04.222Z,94428.00
2019-01-30T15:55:08.495Z,94433.00
2019-01-30T16:00:16.135Z,94427.00
2019-01-30T16:05:19.184Z,94450.00
2019-01-30T16:10:24.050Z,94449.00
2019-01-30T16:15:30.573Z,94447.00
2019-01-30T16:20:33.123Z,94455.00
2019-01-30T16:25:36.100Z,94444.00
2019-01-30T16:30:38.650Z,94461.00
2019-01-30T16:35:56.124Z,94450.00
2019-01-30T16:40:54.869Z,94454.00
2019-01-30T16:45:57.827Z,94459.00
2019-01-30T16:51:00.429Z,94472.00
2019-01-30T16:56:03.682Z,94478.00
2019-01-30T17:13:28.860Z,94373.00
2019-01-30T17:18:32.862Z,94485.00
2019-01-30T17:23:35.352Z,94494.00
2019-01-30T17:28:38.595Z,94487.00
2019-01-30T17:33:41.170Z,94499.00
2019-01-30T17:38:43.927Z,94504.00
2019-01-30T17:44:19.244Z,94517.00
2019-01-30T17:49:34.991Z,94514.00
2019-01-30T17:54:41.300Z,94514.00
2019-01-30T17:59:47.480Z,94519.00
2019-01-30T18:39:51.119Z,94558.00
2019-01-30T18:45:01.077Z,94553.00
2019-01-30T18:57:16.555Z,94564.00
2019-01-30T19:31:37.598Z,94593.00
2019-01-30T19:42:42.625Z,94605.00
2019-01-30T19:47:45.332Z,94599.00
2019-01-30T19:52:48.336Z,94609.00
2019-01-30T19:57:51.311Z,94606.00
2019-01-30T20:02:54.004Z,94616.00
2019-01-30T20:07:58.197Z,94612.00
2019-01-30T20:13:01.120Z,94622.00
2019-01-30T20:18:07.698Z,94620.00
2019-01-30T20:23:16.296Z,94628.00
2019-01-30T20:28:21.896Z,94624.00
2019-01-30T20:33:43.883Z,94627.00
2019-01-30T20:38:47.306Z,94635.00
2019-01-30T20:43:50.108Z,94631.00
2019-01-30T20:48:52.764Z,94642.00
2019-01-30T20:54:00.602Z,94650.00
2019-01-30T20:59:04.607Z,94653.00
2019-01-30T21:04:08.947Z,94659.00
2019-01-30T21:09:12.637Z,94656.00
2019-01-30T21:14:27.068Z,94657.00
2019-01-30T21:26:00.042Z,94674.00
2019-01-30T21:31:03.152Z,94663.00
2019-01-30T21:36:05.705Z,94665.00
2019-01-30T21:41:08.478Z,94677.00
2019-01-30T21:46:11.044Z,94679.00
2019-01-30T21:51:13.848Z,94674.00
2019-01-30T21:56:16.402Z,94668.00
2019-01-30T22:01:20.773Z,94667.00
2019-01-30T22:06:23.731Z,94672.00
2019-01-30T22:11:26.503Z,94680.00
2019-01-30T22:16:30.284Z,94659.00
2019-01-30T22:21:33.035Z,94672.00
2019-01-30T22:26:35.555Z,94668.00
2019-01-30T22:31:38.074Z,94671.00
2019-01-30T22:36:40.650Z,94689.00
2019-01-30T22:41:43.229Z,94676.00
2019-01-30T22:46:45.697Z,94676.00
2019-01-30T22:51:48.203Z,94675.00
2019-01-30T22:56:50.862Z,94670.00
2019-01-30T23:01:56.918Z,94669.00
2019-01-30T23:07:24.269Z,94673.00
2019-01-30T23:13:17.047Z,94665.00
2019-01-30T23:18:40.440Z,94661.00
2019-01-30T23:24:23.059Z,94658.00
2019-01-30T23:30:04.850Z,94662.00
2019-01-30T23:35:27.066Z,94657.00
2019-01-30T23:40:51.936Z,94665.00
2019-01-30T23:46:16.811Z,94658.00
2019-01-30T23:51:43.066Z,94663.00
2019-01-30T23:57:10.067Z,94665.00
